sensor_id;sensor_type;location;lat;lon;timestamp;P1;durP1;ratioP1;P2;durP2;ratioP2
73571;SDS011;61854;48.510;-2.770;2022-10-18T00:01:50;80.63;;;11.43;;
73571;SDS011;61854;48.510;-2.770;2022-10-18T00:04:16;136.52;;;12.25;;
73571;SDS011;61854;48.510;-2.770;2022-10-18T00:06:41;139.90;;;14.02;;
73571;SDS011;61854;48.510;-2.770;2022-10-18T00:09:07;87.15;;;11.02;;
73571;SDS011;61854;48.510;-2.770;2022-10-18T00:11:32;61.78;;;10.20;;
73571;SDS011;61854;48.510;-2.770;2022-10-18T00:13:59;70.50;;;10.50;;
73571;SDS011;61854;48.510;-2.770;2022-10-18T00:16:25;90.97;;;10.32;;
73571;SDS011;61854;48.510;-2.770;2022-10-18T00:18:50;49.80;;;9.30;;
73571;SDS011;61854;48.510;-2.770;2022-10-18T00:21:17;33.70;;;7.88;;
73571;SDS011;61854;48.510;-2.770;2022-10-18T00:26:29;16.80;;;6.53;;
73571;SDS011;61854;48.510;-2.770;2022-10-18T00:29:00;35.05;;;6.90;;
73571;SDS011;61854;48.510;-2.770;2022-10-18T00:31:29;23.77;;;7.28;;
73571;SDS011;61854;48.510;-2.770;2022-10-18T00:36:27;25.17;;;6.40;;
73571;SDS011;61854;48.510;-2.770;2022-10-18T00:41:22;12.93;;;5.88;;
73571;SDS011;61854;48.510;-2.770;2022-10-18T00:46:49;21.42;;;6.85;;
73571;SDS011;61854;48.510;-2.770;2022-10-18T00:49:21;15.23;;;6.88;;
73571;SDS011;61854;48.510;-2.770;2022-10-18T00:51:57;19.30;;;6.30;;
73571;SDS011;61854;48.510;-2.770;2022-10-18T00:54:25;16.27;;;6.88;;
73571;SDS011;61854;48.510;-2.770;2022-10-18T00:56:53;13.90;;;6.30;;
73571;SDS011;61854;48.510;-2.770;2022-10-18T00:59:19;12.00;;;6.28;;
73571;SDS011;61854;48.510;-2.770;2022-10-18T01:01:48;10.60;;;6.63;;
73571;SDS011;61854;48.510;-2.770;2022-10-18T01:04:14;9.80;;;6.38;;
73571;SDS011;61854;48.510;-2.770;2022-10-18T01:09:39;8.98;;;5.53;;
73571;SDS011;61854;48.510;-2.770;2022-10-18T01:12:14;8.32;;;5.40;;
73571;SDS011;61854;48.510;-2.770;2022-10-18T01:17:45;6.50;;;4.78;;
73571;SDS011;61854;48.510;-2.770;2022-10-18T01:23:04;8.20;;;5.68;;
73571;SDS011;61854;48.510;-2.770;2022-10-18T01:25:52;9.75;;;5.22;;
73571;SDS011;61854;48.510;-2.770;2022-10-18T01:28:39;7.07;;;4.50;;
73571;SDS011;61854;48.510;-2.770;2022-10-18T01:31:29;6.80;;;4.68;;
73571;SDS011;61854;48.510;-2.770;2022-10-18T01:34:00;6.65;;;4.97;;
73571;SDS011;61854;48.510;-2.770;2022-10-18T01:36:33;8.48;;;4.50;;
73571;SDS011;61854;48.510;-2.770;2022-10-18T01:39:03;6.95;;;4.80;;
73571;SDS011;61854;48.510;-2.770;2022-10-18T01:41:32;5.90;;;4.60;;
73571;SDS011;61854;48.510;-2.770;2022-10-18T01:44:01;5.78;;;4.38;;
73571;SDS011;61854;48.510;-2.770;2022-10-18T01:46:29;6.88;;;4.63;;
73571;SDS011;61854;48.510;-2.770;2022-10-18T01:48:57;6.05;;;4.47;;
73571;SDS011;61854;48.510;-2.770;2022-10-18T01:51:27;5.47;;;4.25;;
73571;SDS011;61854;48.510;-2.770;2022-10-18T01:53:54;6.80;;;4.60;;
73571;SDS011;61854;48.510;-2.770;2022-10-18T01:56:26;5.20;;;4.47;;
73571;SDS011;61854;48.510;-2.770;2022-10-18T02:07:42;6.68;;;5.00;;
73571;SDS011;61854;48.510;-2.770;2022-10-18T02:13:12;6.90;;;4.18;;
73571;SDS011;61854;48.510;-2.770;2022-10-18T02:15:40;7.25;;;4.38;;
73571;SDS011;61854;48.510;-2.770;2022-10-18T02:18:10;5.68;;;4.00;;
73571;SDS011;61854;48.510;-2.770;2022-10-18T02:20:49;5.85;;;4.25;;
73571;SDS011;61854;48.510;-2.770;2022-10-18T02:23:17;7.40;;;4.38;;
73571;SDS011;61854;48.510;-2.770;2022-10-18T02:25:47;9.38;;;4.13;;
73571;SDS011;61854;48.510;-2.770;2022-10-18T02:28:13;6.72;;;4.28;;
73571;SDS011;61854;48.510;-2.770;2022-10-18T02:33:21;5.97;;;4.00;;
73571;SDS011;61854;48.510;-2.770;2022-10-18T02:36:17;6.30;;;4.47;;
73571;SDS011;61854;48.510;-2.770;2022-10-18T02:38:48;6.32;;;4.70;;
73571;SDS011;61854;48.510;-2.770;2022-10-18T02:41:26;6.80;;;4.30;;
73571;SDS011;61854;48.510;-2.770;2022-10-18T02:43:52;6.57;;;4.07;;
73571;SDS011;61854;48.510;-2.770;2022-10-18T02:46:18;5.57;;;3.63;;
73571;SDS011;61854;48.510;-2.770;2022-10-18T02:48:44;21.23;;;4.47;;
73571;SDS011;61854;48.510;-2.770;2022-10-18T02:51:13;62.40;;;6.78;;
73571;SDS011;61854;48.510;-2.770;2022-10-18T02:53:39;149.90;;;8.18;;
73571;SDS011;61854;48.510;-2.770;2022-10-18T02:56:04;129.13;;;8.10;;
73571;SDS011;61854;48.510;-2.770;2022-10-18T02:58:30;130.77;;;7.38;;
73571;SDS011;61854;48.510;-2.770;2022-10-18T03:00:56;95.07;;;6.30;;
73571;SDS011;61854;48.510;-2.770;2022-10-18T03:03:21;104.22;;;7.30;;
73571;SDS011;61854;48.510;-2.770;2022-10-18T03:05:51;153.95;;;9.50;;
73571;SDS011;61854;48.510;-2.770;2022-10-18T03:08:17;114.28;;;8.52;;
73571;SDS011;61854;48.510;-2.770;2022-10-18T03:10:43;150.45;;;8.65;;
73571;SDS011;61854;48.510;-2.770;2022-10-18T03:13:10;124.78;;;7.07;;
73571;SDS011;61854;48.510;-2.770;2022-10-18T03:15:36;89.80;;;6.55;;
73571;SDS011;61854;48.510;-2.770;2022-10-18T03:18:02;116.50;;;5.75;;
73571;SDS011;61854;48.510;-2.770;2022-10-18T03:20:27;50.60;;;4.70;;
73571;SDS011;61854;48.510;-2.770;2022-10-18T03:22:53;37.88;;;4.15;;
73571;SDS011;61854;48.510;-2.770;2022-10-18T03:25:19;80.25;;;5.28;;
73571;SDS011;61854;48.510;-2.770;2022-10-18T03:27:44;48.95;;;4.60;;
73571;SDS011;61854;48.510;-2.770;2022-10-18T03:30:10;45.83;;;5.88;;
73571;SDS011;61854;48.510;-2.770;2022-10-18T03:32:37;58.30;;;6.03;;
73571;SDS011;61854;48.510;-2.770;2022-10-18T03:35:04;59.03;;;6.32;;
73571;SDS011;61854;48.510;-2.770;2022-10-18T03:37:31;76.05;;;7.03;;
73571;SDS011;61854;48.510;-2.770;2022-10-18T03:39:56;88.07;;;6.65;;
73571;SDS011;61854;48.510;-2.770;2022-10-18T03:42:28;77.80;;;6.38;;
73571;SDS011;61854;48.510;-2.770;2022-10-18T03:44:54;94.10;;;7.82;;
73571;SDS011;61854;48.510;-2.770;2022-10-18T03:47:19;89.95;;;6.03;;
73571;SDS011;61854;48.510;-2.770;2022-10-18T03:49:45;74.30;;;6.57;;
73571;SDS011;61854;48.510;-2.770;2022-10-18T03:52:14;111.18;;;8.25;;
73571;SDS011;61854;48.510;-2.770;2022-10-18T03:54:39;108.05;;;8.18;;
73571;SDS011;61854;48.510;-2.770;2022-10-18T03:57:05;75.03;;;7.03;;
73571;SDS011;61854;48.510;-2.770;2022-10-18T03:59:30;69.28;;;7.72;;
73571;SDS011;61854;48.510;-2.770;2022-10-18T04:01:56;62.50;;;7.30;;
73571;SDS011;61854;48.510;-2.770;2022-10-18T04:04:22;70.45;;;7.70;;
73571;SDS011;61854;48.510;-2.770;2022-10-18T04:06:47;84.03;;;9.10;;
73571;SDS011;61854;48.510;-2.770;2022-10-18T04:09:13;63.10;;;9.10;;
73571;SDS011;61854;48.510;-2.770;2022-10-18T04:11:38;27.00;;;7.90;;
73571;SDS011;61854;48.510;-2.770;2022-10-18T04:14:04;42.03;;;10.02;;
73571;SDS011;61854;48.510;-2.770;2022-10-18T04:16:30;75.97;;;12.07;;
73571;SDS011;61854;48.510;-2.770;2022-10-18T04:18:56;67.72;;;12.75;;
73571;SDS011;61854;48.510;-2.770;2022-10-18T04:21:21;33.55;;;10.75;;
73571;SDS011;61854;48.510;-2.770;2022-10-18T04:23:47;40.35;;;12.80;;
73571;SDS011;61854;48.510;-2.770;2022-10-18T04:26:13;45.22;;;13.98;;
73571;SDS011;61854;48.510;-2.770;2022-10-18T04:28:40;72.43;;;14.80;;
73571;SDS011;61854;48.510;-2.770;2022-10-18T04:31:06;89.10;;;15.65;;
73571;SDS011;61854;48.510;-2.770;2022-10-18T04:33:33;65.63;;;16.60;;
73571;SDS011;61854;48.510;-2.770;2022-10-18T04:35:58;66.90;;;16.05;;
73571;SDS011;61854;48.510;-2.770;2022-10-18T04:38:24;85.40;;;17.48;;
73571;SDS011;61854;48.510;-2.770;2022-10-18T04:40:49;63.60;;;17.60;;
73571;SDS011;61854;48.510;-2.770;2022-10-18T04:43:15;69.82;;;20.13;;
73571;SDS011;61854;48.510;-2.770;2022-10-18T04:45:43;107.90;;;21.35;;
73571;SDS011;61854;48.510;-2.770;2022-10-18T04:48:12;96.13;;;23.20;;
73571;SDS011;61854;48.510;-2.770;2022-10-18T04:50:38;77.47;;;21.23;;
73571;SDS011;61854;48.510;-2.770;2022-10-18T04:53:07;65.90;;;22.45;;
73571;SDS011;61854;48.510;-2.770;2022-10-18T04:55:33;128.55;;;27.13;;
73571;SDS011;61854;48.510;-2.770;2022-10-18T04:57:59;112.85;;;26.38;;
73571;SDS011;61854;48.510;-2.770;2022-10-18T05:00:25;93.95;;;26.52;;
73571;SDS011;61854;48.510;-2.770;2022-10-18T05:02:57;122.57;;;26.98;;
73571;SDS011;61854;48.510;-2.770;2022-10-18T05:05:23;89.68;;;24.50;;
73571;SDS011;61854;48.510;-2.770;2022-10-18T05:07:48;72.70;;;24.98;;
73571;SDS011;61854;48.510;-2.770;2022-10-18T05:10:14;76.43;;;26.50;;
73571;SDS011;61854;48.510;-2.770;2022-10-18T05:12:40;85.75;;;25.17;;
73571;SDS011;61854;48.510;-2.770;2022-10-18T05:15:07;89.60;;;26.38;;
73571;SDS011;61854;48.510;-2.770;2022-10-18T05:17:33;103.00;;;27.83;;
73571;SDS011;61854;48.510;-2.770;2022-10-18T05:19:59;77.20;;;25.10;;
73571;SDS011;61854;48.510;-2.770;2022-10-18T05:22:25;105.88;;;27.77;;
73571;SDS011;61854;48.510;-2.770;2022-10-18T05:24:51;82.93;;;25.15;;
73571;SDS011;61854;48.510;-2.770;2022-10-18T05:27:18;116.97;;;27.73;;
73571;SDS011;61854;48.510;-2.770;2022-10-18T05:29:43;114.95;;;26.80;;
73571;SDS011;61854;48.510;-2.770;2022-10-18T05:32:10;103.20;;;25.50;;
73571;SDS011;61854;48.510;-2.770;2022-10-18T05:34:35;103.32;;;26.23;;
73571;SDS011;61854;48.510;-2.770;2022-10-18T05:37:02;76.03;;;24.33;;
73571;SDS011;61854;48.510;-2.770;2022-10-18T05:39:28;96.97;;;26.00;;
73571;SDS011;61854;48.510;-2.770;2022-10-18T05:41:54;58.17;;;22.42;;
73571;SDS011;61854;48.510;-2.770;2022-10-18T05:44:20;73.72;;;23.35;;
73571;SDS011;61854;48.510;-2.770;2022-10-18T05:46:45;70.75;;;23.50;;
73571;SDS011;61854;48.510;-2.770;2022-10-18T05:49:11;111.40;;;24.88;;
73571;SDS011;61854;48.510;-2.770;2022-10-18T05:51:37;117.80;;;25.60;;
73571;SDS011;61854;48.510;-2.770;2022-10-18T05:54:02;118.80;;;26.58;;
73571;SDS011;61854;48.510;-2.770;2022-10-18T05:56:28;106.95;;;25.83;;
73571;SDS011;61854;48.510;-2.770;2022-10-18T05:58:54;108.72;;;25.60;;
73571;SDS011;61854;48.510;-2.770;2022-10-18T06:01:20;87.95;;;25.67;;
73571;SDS011;61854;48.510;-2.770;2022-10-18T06:03:46;98.25;;;26.95;;
73571;SDS011;61854;48.510;-2.770;2022-10-18T06:06:12;110.45;;;27.13;;
73571;SDS011;61854;48.510;-2.770;2022-10-18T06:08:38;103.32;;;26.67;;
73571;SDS011;61854;48.510;-2.770;2022-10-18T06:11:12;170.48;;;25.88;;
73571;SDS011;61854;48.510;-2.770;2022-10-18T06:13:43;175.82;;;27.65;;
73571;SDS011;61854;48.510;-2.770;2022-10-18T06:16:11;142.52;;;25.10;;
73571;SDS011;61854;48.510;-2.770;2022-10-18T06:18:37;149.30;;;25.95;;
73571;SDS011;61854;48.510;-2.770;2022-10-18T06:21:04;64.97;;;22.83;;
73571;SDS011;61854;48.510;-2.770;2022-10-18T06:23:30;115.60;;;24.10;;
73571;SDS011;61854;48.510;-2.770;2022-10-18T06:25:59;118.00;;;22.27;;
73571;SDS011;61854;48.510;-2.770;2022-10-18T06:28:26;103.95;;;23.77;;
73571;SDS011;61854;48.510;-2.770;2022-10-18T06:30:52;69.32;;;22.98;;
73571;SDS011;61854;48.510;-2.770;2022-10-18T06:33:17;62.97;;;20.65;;
73571;SDS011;61854;48.510;-2.770;2022-10-18T06:35:43;56.97;;;20.73;;
73571;SDS011;61854;48.510;-2.770;2022-10-18T06:38:18;55.90;;;21.35;;
73571;SDS011;61854;48.510;-2.770;2022-10-18T06:40:46;84.28;;;21.95;;
73571;SDS011;61854;48.510;-2.770;2022-10-18T06:43:11;60.23;;;21.53;;
73571;SDS011;61854;48.510;-2.770;2022-10-18T06:45:37;63.38;;;21.08;;
73571;SDS011;61854;48.510;-2.770;2022-10-18T06:48:03;58.30;;;20.60;;
73571;SDS011;61854;48.510;-2.770;2022-10-18T06:50:29;66.20;;;21.65;;
73571;SDS011;61854;48.510;-2.770;2022-10-18T06:52:55;56.33;;;19.58;;
73571;SDS011;61854;48.510;-2.770;2022-10-18T06:55:20;44.13;;;19.10;;
73571;SDS011;61854;48.510;-2.770;2022-10-18T06:57:47;42.60;;;19.20;;
73571;SDS011;61854;48.510;-2.770;2022-10-18T07:00:12;43.85;;;19.13;;
73571;SDS011;61854;48.510;-2.770;2022-10-18T07:02:38;31.10;;;17.33;;
73571;SDS011;61854;48.510;-2.770;2022-10-18T07:05:05;30.48;;;16.25;;
73571;SDS011;61854;48.510;-2.770;2022-10-18T07:07:31;59.00;;;18.13;;
73571;SDS011;61854;48.510;-2.770;2022-10-18T07:09:57;51.95;;;17.50;;
73571;SDS011;61854;48.510;-2.770;2022-10-18T07:12:23;35.70;;;16.25;;
73571;SDS011;61854;48.510;-2.770;2022-10-18T07:14:48;43.25;;;16.55;;
73571;SDS011;61854;48.510;-2.770;2022-10-18T07:17:14;44.95;;;17.27;;
73571;SDS011;61854;48.510;-2.770;2022-10-18T07:19:40;36.75;;;17.23;;
73571;SDS011;61854;48.510;-2.770;2022-10-18T07:22:05;36.97;;;16.77;;
73571;SDS011;61854;48.510;-2.770;2022-10-18T07:24:31;39.83;;;16.67;;
73571;SDS011;61854;48.510;-2.770;2022-10-18T07:26:57;37.75;;;18.00;;
73571;SDS011;61854;48.510;-2.770;2022-10-18T07:29:22;33.35;;;17.48;;
73571;SDS011;61854;48.510;-2.770;2022-10-18T07:31:48;35.20;;;17.15;;
73571;SDS011;61854;48.510;-2.770;2022-10-18T07:34:14;36.80;;;18.25;;
73571;SDS011;61854;48.510;-2.770;2022-10-18T07:36:39;41.65;;;19.00;;
73571;SDS011;61854;48.510;-2.770;2022-10-18T07:39:05;37.45;;;17.58;;
73571;SDS011;61854;48.510;-2.770;2022-10-18T07:41:31;45.08;;;19.95;;
73571;SDS011;61854;48.510;-2.770;2022-10-18T07:43:58;36.35;;;18.00;;
73571;SDS011;61854;48.510;-2.770;2022-10-18T07:46:24;39.80;;;19.02;;
73571;SDS011;61854;48.510;-2.770;2022-10-18T07:48:50;38.45;;;19.27;;
73571;SDS011;61854;48.510;-2.770;2022-10-18T07:51:16;36.28;;;19.00;;
73571;SDS011;61854;48.510;-2.770;2022-10-18T07:53:42;37.22;;;19.27;;
73571;SDS011;61854;48.510;-2.770;2022-10-18T07:56:09;38.15;;;19.17;;
73571;SDS011;61854;48.510;-2.770;2022-10-18T07:58:40;44.42;;;19.02;;
73571;SDS011;61854;48.510;-2.770;2022-10-18T08:01:09;41.38;;;20.75;;
73571;SDS011;61854;48.510;-2.770;2022-10-18T08:03:39;43.85;;;21.25;;
73571;SDS011;61854;48.510;-2.770;2022-10-18T08:06:06;40.25;;;19.80;;
73571;SDS011;61854;48.510;-2.770;2022-10-18T08:08:33;38.17;;;20.30;;
73571;SDS011;61854;48.510;-2.770;2022-10-18T08:11:04;49.50;;;21.30;;
73571;SDS011;61854;48.510;-2.770;2022-10-18T08:13:31;36.55;;;18.80;;
73571;SDS011;61854;48.510;-2.770;2022-10-18T08:15:58;37.08;;;18.45;;
73571;SDS011;61854;48.510;-2.770;2022-10-18T08:18:25;30.43;;;16.17;;
73571;SDS011;61854;48.510;-2.770;2022-10-18T08:20:50;35.58;;;18.10;;
73571;SDS011;61854;48.510;-2.770;2022-10-18T08:23:16;32.40;;;16.70;;
73571;SDS011;61854;48.510;-2.770;2022-10-18T08:25:41;29.35;;;15.75;;
73571;SDS011;61854;48.510;-2.770;2022-10-18T08:28:07;26.27;;;15.95;;
73571;SDS011;61854;48.510;-2.770;2022-10-18T08:30:33;21.33;;;12.35;;
73571;SDS011;61854;48.510;-2.770;2022-10-18T08:32:59;27.63;;;13.55;;
73571;SDS011;61854;48.510;-2.770;2022-10-18T08:35:25;21.65;;;11.77;;
73571;SDS011;61854;48.510;-2.770;2022-10-18T08:37:51;14.23;;;10.43;;
73571;SDS011;61854;48.510;-2.770;2022-10-18T08:40:17;17.48;;;9.85;;
73571;SDS011;61854;48.510;-2.770;2022-10-18T08:45:18;18.55;;;9.93;;
73571;SDS011;61854;48.510;-2.770;2022-10-18T08:47:45;44.03;;;10.38;;
73571;SDS011;61854;48.510;-2.770;2022-10-18T08:50:17;20.63;;;10.02;;
73571;SDS011;61854;48.510;-2.770;2022-10-18T08:53:03;21.00;;;11.77;;
73571;SDS011;61854;48.510;-2.770;2022-10-18T08:58:14;22.80;;;11.13;;
73571;SDS011;61854;48.510;-2.770;2022-10-18T09:00:49;16.70;;;10.50;;
73571;SDS011;61854;48.510;-2.770;2022-10-18T09:20:59;16.40;;;9.18;;
73571;SDS011;61854;48.510;-2.770;2022-10-18T09:23:46;18.48;;;8.75;;
73571;SDS011;61854;48.510;-2.770;2022-10-18T09:26:26;14.93;;;8.73;;
73571;SDS011;61854;48.510;-2.770;2022-10-18T09:34:33;14.73;;;8.55;;
73571;SDS011;61854;48.510;-2.770;2022-10-18T09:37:01;17.33;;;8.48;;
73571;SDS011;61854;48.510;-2.770;2022-10-18T09:39:29;13.77;;;8.68;;
73571;SDS011;61854;48.510;-2.770;2022-10-18T09:44:54;13.82;;;7.78;;
73571;SDS011;61854;48.510;-2.770;2022-10-18T09:47:34;18.30;;;7.50;;
73571;SDS011;61854;48.510;-2.770;2022-10-18T09:50:28;12.63;;;7.45;;
73571;SDS011;61854;48.510;-2.770;2022-10-18T09:55:42;14.38;;;7.57;;
73571;SDS011;61854;48.510;-2.770;2022-10-18T09:58:37;15.90;;;7.40;;
73571;SDS011;61854;48.510;-2.770;2022-10-18T10:01:08;11.10;;;6.70;;
73571;SDS011;61854;48.510;-2.770;2022-10-18T10:03:37;13.55;;;7.53;;
73571;SDS011;61854;48.510;-2.770;2022-10-18T10:08:35;13.10;;;7.55;;
73571;SDS011;61854;48.510;-2.770;2022-10-18T10:11:04;14.80;;;7.15;;
73571;SDS011;61854;48.510;-2.770;2022-10-18T10:13:51;14.45;;;7.60;;
73571;SDS011;61854;48.510;-2.770;2022-10-18T10:16:20;11.00;;;5.20;;
73571;SDS011;61854;48.510;-2.770;2022-10-18T10:18:51;9.90;;;6.65;;
73571;SDS011;61854;48.510;-2.770;2022-10-18T10:21:18;12.68;;;6.88;;
73571;SDS011;61854;48.510;-2.770;2022-10-18T10:23:56;15.30;;;7.97;;
73571;SDS011;61854;48.510;-2.770;2022-10-18T10:26:29;14.60;;;7.70;;
73571;SDS011;61854;48.510;-2.770;2022-10-18T10:28:58;16.30;;;7.72;;
73571;SDS011;61854;48.510;-2.770;2022-10-18T10:36:45;21.05;;;9.82;;
73571;SDS011;61854;48.510;-2.770;2022-10-18T10:39:13;16.00;;;8.85;;
73571;SDS011;61854;48.510;-2.770;2022-10-18T10:41:42;13.15;;;8.15;;
73571;SDS011;61854;48.510;-2.770;2022-10-18T10:44:13;11.07;;;7.30;;
73571;SDS011;61854;48.510;-2.770;2022-10-18T10:46:41;11.68;;;7.32;;
73571;SDS011;61854;48.510;-2.770;2022-10-18T10:49:12;14.10;;;7.63;;
73571;SDS011;61854;48.510;-2.770;2022-10-18T10:52:00;13.43;;;8.52;;
73571;SDS011;61854;48.510;-2.770;2022-10-18T10:54:27;12.35;;;7.65;;
73571;SDS011;61854;48.510;-2.770;2022-10-18T10:59:39;15.05;;;8.18;;
73571;SDS011;61854;48.510;-2.770;2022-10-18T11:02:33;13.63;;;8.80;;
73571;SDS011;61854;48.510;-2.770;2022-10-18T11:07:48;17.02;;;9.10;;
73571;SDS011;61854;48.510;-2.770;2022-10-18T11:10:18;19.75;;;9.63;;
73571;SDS011;61854;48.510;-2.770;2022-10-18T11:15:20;14.02;;;8.80;;
73571;SDS011;61854;48.510;-2.770;2022-10-18T11:23:24;18.27;;;9.88;;
73571;SDS011;61854;48.510;-2.770;2022-10-18T11:39:30;20.20;;;10.07;;
73571;SDS011;61854;48.510;-2.770;2022-10-18T11:53:18;14.73;;;8.75;;
73571;SDS011;61854;48.510;-2.770;2022-10-18T11:58:53;17.65;;;9.55;;
73571;SDS011;61854;48.510;-2.770;2022-10-18T12:01:42;14.38;;;8.55;;
73571;SDS011;61854;48.510;-2.770;2022-10-18T12:04:16;15.50;;;8.35;;
73571;SDS011;61854;48.510;-2.770;2022-10-18T12:06:44;16.13;;;9.23;;
73571;SDS011;61854;48.510;-2.770;2022-10-18T12:12:41;14.35;;;8.45;;
73571;SDS011;61854;48.510;-2.770;2022-10-18T12:14:55;24.27;;;9.15;;
73571;SDS011;61854;48.510;-2.770;2022-10-18T12:17:26;15.57;;;8.48;;
73571;SDS011;61854;48.510;-2.770;2022-10-18T12:20:06;12.63;;;8.10;;
73571;SDS011;61854;48.510;-2.770;2022-10-18T12:22:41;18.52;;;8.95;;
73571;SDS011;61854;48.510;-2.770;2022-10-18T12:25:23;13.15;;;8.07;;
73571;SDS011;61854;48.510;-2.770;2022-10-18T12:27:53;15.57;;;7.93;;
73571;SDS011;61854;48.510;-2.770;2022-10-18T12:30:47;12.02;;;7.45;;
73571;SDS011;61854;48.510;-2.770;2022-10-18T12:33:20;11.85;;;7.68;;
73571;SDS011;61854;48.510;-2.770;2022-10-18T12:36:05;22.77;;;7.78;;
73571;SDS011;61854;48.510;-2.770;2022-10-18T12:38:56;14.85;;;7.78;;
73571;SDS011;61854;48.510;-2.770;2022-10-18T12:41:24;11.43;;;7.65;;
73571;SDS011;61854;48.510;-2.770;2022-10-18T12:44:02;14.15;;;7.38;;
73571;SDS011;61854;48.510;-2.770;2022-10-18T12:51:58;15.75;;;8.23;;
73571;SDS011;61854;48.510;-2.770;2022-10-18T12:54:30;14.63;;;7.05;;
73571;SDS011;61854;48.510;-2.770;2022-10-18T12:56:59;16.08;;;8.38;;
73571;SDS011;61854;48.510;-2.770;2022-10-18T13:09:24;9.75;;;5.95;;
73571;SDS011;61854;48.510;-2.770;2022-10-18T13:11:51;13.18;;;7.53;;
73571;SDS011;61854;48.510;-2.770;2022-10-18T13:14:34;11.95;;;6.90;;
73571;SDS011;61854;48.510;-2.770;2022-10-18T13:17:24;11.32;;;6.47;;
73571;SDS011;61854;48.510;-2.770;2022-10-18T13:25:59;12.27;;;7.20;;
73571;SDS011;61854;48.510;-2.770;2022-10-18T13:31:28;14.80;;;6.93;;
73571;SDS011;61854;48.510;-2.770;2022-10-18T13:33:54;13.73;;;7.00;;
73571;SDS011;61854;48.510;-2.770;2022-10-18T13:36:39;15.57;;;7.28;;
73571;SDS011;61854;48.510;-2.770;2022-10-18T13:39:14;13.90;;;6.85;;
73571;SDS011;61854;48.510;-2.770;2022-10-18T13:57:48;17.52;;;7.65;;
73571;SDS011;61854;48.510;-2.770;2022-10-18T14:05:40;15.85;;;7.10;;
73571;SDS011;61854;48.510;-2.770;2022-10-18T14:08:19;17.75;;;7.50;;
73571;SDS011;61854;48.510;-2.770;2022-10-18T14:18:51;10.93;;;7.35;;
73571;SDS011;61854;48.510;-2.770;2022-10-18T14:21:23;13.15;;;7.32;;
73571;SDS011;61854;48.510;-2.770;2022-10-18T14:23:54;12.27;;;7.78;;
73571;SDS011;61854;48.510;-2.770;2022-10-18T14:26:20;13.93;;;8.23;;
73571;SDS011;61854;48.510;-2.770;2022-10-18T14:29:00;14.23;;;8.25;;
73571;SDS011;61854;48.510;-2.770;2022-10-18T14:31:28;15.25;;;8.00;;
73571;SDS011;61854;48.510;-2.770;2022-10-18T14:33:54;15.25;;;7.75;;
73571;SDS011;61854;48.510;-2.770;2022-10-18T14:36:22;18.02;;;8.07;;
73571;SDS011;61854;48.510;-2.770;2022-10-18T14:41:23;13.32;;;7.78;;
73571;SDS011;61854;48.510;-2.770;2022-10-18T14:43:49;15.77;;;8.00;;
73571;SDS011;61854;48.510;-2.770;2022-10-18T14:46:25;14.10;;;8.13;;
73571;SDS011;61854;48.510;-2.770;2022-10-18T14:51:17;18.65;;;9.10;;
73571;SDS011;61854;48.510;-2.770;2022-10-18T14:53:42;13.02;;;8.00;;
73571;SDS011;61854;48.510;-2.770;2022-10-18T14:56:12;13.80;;;8.30;;
73571;SDS011;61854;48.510;-2.770;2022-10-18T14:58:49;14.57;;;8.27;;
73571;SDS011;61854;48.510;-2.770;2022-10-18T15:01:17;14.48;;;8.10;;
73571;SDS011;61854;48.510;-2.770;2022-10-18T15:03:45;16.98;;;8.10;;
73571;SDS011;61854;48.510;-2.770;2022-10-18T15:06:14;15.77;;;8.68;;
73571;SDS011;61854;48.510;-2.770;2022-10-18T15:08:43;14.23;;;7.78;;
73571;SDS011;61854;48.510;-2.770;2022-10-18T15:11:10;12.90;;;8.55;;
73571;SDS011;61854;48.510;-2.770;2022-10-18T15:13:41;15.27;;;9.10;;
73571;SDS011;61854;48.510;-2.770;2022-10-18T15:16:17;11.40;;;8.35;;
73571;SDS011;61854;48.510;-2.770;2022-10-18T15:18:57;15.07;;;9.00;;
73571;SDS011;61854;48.510;-2.770;2022-10-18T15:21:31;19.50;;;8.82;;
73571;SDS011;61854;48.510;-2.770;2022-10-18T15:24:18;15.00;;;9.25;;
73571;SDS011;61854;48.510;-2.770;2022-10-18T15:26:45;16.42;;;9.18;;
73571;SDS011;61854;48.510;-2.770;2022-10-18T15:29:16;14.02;;;8.85;;
73571;SDS011;61854;48.510;-2.770;2022-10-18T15:31:44;21.02;;;9.73;;
73571;SDS011;61854;48.510;-2.770;2022-10-18T15:34:13;15.60;;;9.48;;
73571;SDS011;61854;48.510;-2.770;2022-10-18T15:36:45;20.00;;;9.30;;
73571;SDS011;61854;48.510;-2.770;2022-10-18T15:39:17;15.80;;;9.13;;
73571;SDS011;61854;48.510;-2.770;2022-10-18T15:42:00;19.70;;;9.38;;
73571;SDS011;61854;48.510;-2.770;2022-10-18T15:44:27;17.25;;;9.63;;
73571;SDS011;61854;48.510;-2.770;2022-10-18T15:54:52;16.40;;;10.02;;
73571;SDS011;61854;48.510;-2.770;2022-10-18T15:57:18;16.23;;;9.68;;
73571;SDS011;61854;48.510;-2.770;2022-10-18T15:59:55;18.15;;;10.43;;
73571;SDS011;61854;48.510;-2.770;2022-10-18T16:02:27;18.63;;;9.80;;
73571;SDS011;61854;48.510;-2.770;2022-10-18T16:04:53;16.23;;;9.77;;
73571;SDS011;61854;48.510;-2.770;2022-10-18T16:07:19;17.92;;;9.90;;
73571;SDS011;61854;48.510;-2.770;2022-10-18T16:09:44;22.88;;;9.90;;
73571;SDS011;61854;48.510;-2.770;2022-10-18T16:12:10;16.02;;;10.63;;
73571;SDS011;61854;48.510;-2.770;2022-10-18T16:14:35;22.33;;;10.48;;
73571;SDS011;61854;48.510;-2.770;2022-10-18T16:17:03;17.70;;;10.18;;
73571;SDS011;61854;48.510;-2.770;2022-10-18T16:21:56;16.02;;;10.43;;
73571;SDS011;61854;48.510;-2.770;2022-10-18T16:24:22;18.45;;;10.73;;
73571;SDS011;61854;48.510;-2.770;2022-10-18T16:26:48;16.20;;;11.00;;
73571;SDS011;61854;48.510;-2.770;2022-10-18T16:29:18;16.77;;;10.48;;
73571;SDS011;61854;48.510;-2.770;2022-10-18T16:31:48;19.00;;;11.13;;
73571;SDS011;61854;48.510;-2.770;2022-10-18T16:34:15;16.67;;;10.93;;
73571;SDS011;61854;48.510;-2.770;2022-10-18T16:36:41;22.10;;;12.35;;
73571;SDS011;61854;48.510;-2.770;2022-10-18T16:39:11;16.85;;;11.48;;
73571;SDS011;61854;48.510;-2.770;2022-10-18T16:41:39;21.52;;;10.90;;
73571;SDS011;61854;48.510;-2.770;2022-10-18T16:44:04;18.52;;;10.80;;
73571;SDS011;61854;48.510;-2.770;2022-10-18T16:46:31;22.08;;;11.07;;
73571;SDS011;61854;48.510;-2.770;2022-10-18T16:48:58;18.73;;;11.18;;
73571;SDS011;61854;48.510;-2.770;2022-10-18T16:51:24;16.88;;;9.43;;
73571;SDS011;61854;48.510;-2.770;2022-10-18T16:53:50;20.10;;;10.27;;
73571;SDS011;61854;48.510;-2.770;2022-10-18T16:56:26;25.08;;;11.15;;
73571;SDS011;61854;48.510;-2.770;2022-10-18T16:58:54;16.42;;;10.10;;
73571;SDS011;61854;48.510;-2.770;2022-10-18T17:01:23;18.27;;;11.05;;
73571;SDS011;61854;48.510;-2.770;2022-10-18T17:03:50;20.73;;;11.48;;
73571;SDS011;61854;48.510;-2.770;2022-10-18T17:06:17;18.27;;;11.23;;
73571;SDS011;61854;48.510;-2.770;2022-10-18T17:08:45;20.30;;;11.07;;
73571;SDS011;61854;48.510;-2.770;2022-10-18T17:11:11;27.15;;;11.70;;
73571;SDS011;61854;48.510;-2.770;2022-10-18T17:13:38;24.43;;;10.93;;
73571;SDS011;61854;48.510;-2.770;2022-10-18T17:16:12;17.77;;;9.95;;
73571;SDS011;61854;48.510;-2.770;2022-10-18T17:18:46;19.83;;;11.38;;
73571;SDS011;61854;48.510;-2.770;2022-10-18T17:21:11;16.92;;;10.93;;
73571;SDS011;61854;48.510;-2.770;2022-10-18T17:23:37;20.67;;;10.85;;
73571;SDS011;61854;48.510;-2.770;2022-10-18T17:26:03;21.80;;;12.48;;
73571;SDS011;61854;48.510;-2.770;2022-10-18T17:28:28;22.83;;;11.27;;
73571;SDS011;61854;48.510;-2.770;2022-10-18T17:30:57;24.63;;;12.77;;
73571;SDS011;61854;48.510;-2.770;2022-10-18T17:33:23;25.65;;;12.32;;
73571;SDS011;61854;48.510;-2.770;2022-10-18T17:35:48;18.05;;;12.57;;
73571;SDS011;61854;48.510;-2.770;2022-10-18T17:38:14;23.33;;;13.40;;